sensor_id;sensor_type;location;lat;lon;timestamp;temperature;humidity
46976;DHT22;32724;51.094;6.996;2022-11-12T00:00:37;5.00;99.90
46976;DHT22;32724;51.094;6.996;2022-11-12T00:03:02;5.00;99.90
46976;DHT22;32724;51.094;6.996;2022-11-12T00:05:28;5.10;99.90
46976;DHT22;32724;51.094;6.996;2022-11-12T00:07:54;5.00;99.90
46976;DHT22;32724;51.094;6.996;2022-11-12T00:10:19;5.10;99.90
46976;DHT22;32724;51.094;6.996;2022-11-12T00:12:45;5.10;99.90
46976;DHT22;32724;51.094;6.996;2022-11-12T00:15:11;5.10;99.90
46976;DHT22;32724;51.094;6.996;2022-11-12T00:17:36;5.10;99.90
46976;DHT22;32724;51.094;6.996;2022-11-12T00:20:02;5.10;99.90
46976;DHT22;32724;51.094;6.996;2022-11-12T00:22:28;5.00;99.90
46976;DHT22;32724;51.094;6.996;2022-11-12T00:24:53;5.00;99.90
46976;DHT22;32724;51.094;6.996;2022-11-12T00:27:19;5.00;99.90
46976;DHT22;32724;51.094;6.996;2022-11-12T00:29:44;4.90;99.90
46976;DHT22;32724;51.094;6.996;2022-11-12T00:32:10;4.90;99.90
46976;DHT22;32724;51.094;6.996;2022-11-12T00:34:36;5.00;99.90
46976;DHT22;32724;51.094;6.996;2022-11-12T00:37:01;4.90;99.90
46976;DHT22;32724;51.094;6.996;2022-11-12T00:39:27;4.90;99.90
46976;DHT22;32724;51.094;6.996;2022-11-12T00:41:53;4.80;99.90
46976;DHT22;32724;51.094;6.996;2022-11-12T00:44:18;4.80;99.90
46976;DHT22;32724;51.094;6.996;2022-11-12T00:46:44;4.80;99.90
46976;DHT22;32724;51.094;6.996;2022-11-12T00:49:10;4.70;99.90
46976;DHT22;32724;51.094;6.996;2022-11-12T00:51:35;4.60;99.90
46976;DHT22;32724;51.094;6.996;2022-11-12T00:54:01;4.60;99.90
46976;DHT22;32724;51.094;6.996;2022-11-12T00:56:26;4.50;99.90
46976;DHT22;32724;51.094;6.996;2022-11-12T00:58:52;4.50;99.90
46976;DHT22;32724;51.094;6.996;2022-11-12T01:01:18;4.40;99.90
46976;DHT22;32724;51.094;6.996;2022-11-12T01:03:43;4.40;99.90
46976;DHT22;32724;51.094;6.996;2022-11-12T01:06:13;4.30;99.90
46976;DHT22;32724;51.094;6.996;2022-11-12T01:08:38;4.30;99.90
46976;DHT22;32724;51.094;6.996;2022-11-12T01:11:05;4.20;99.90
46976;DHT22;32724;51.094;6.996;2022-11-12T01:13:31;4.30;99.90
46976;DHT22;32724;51.094;6.996;2022-11-12T01:15:56;4.10;99.90
46976;DHT22;32724;51.094;6.996;2022-11-12T01:18:22;4.20;99.90
46976;DHT22;32724;51.094;6.996;2022-11-12T01:20:47;4.30;99.90
46976;DHT22;32724;51.094;6.996;2022-11-12T01:23:13;4.30;99.90
46976;DHT22;32724;51.094;6.996;2022-11-12T01:25:38;4.10;99.90
46976;DHT22;32724;51.094;6.996;2022-11-12T01:28:04;4.10;99.90
46976;DHT22;32724;51.094;6.996;2022-11-12T01:30:29;4.20;99.90
46976;DHT22;32724;51.094;6.996;2022-11-12T01:32:55;4.20;99.90
46976;DHT22;32724;51.094;6.996;2022-11-12T01:35:20;4.30;99.90
46976;DHT22;32724;51.094;6.996;2022-11-12T01:37:46;4.30;99.90
46976;DHT22;32724;51.094;6.996;2022-11-12T01:40:11;4.30;99.90
46976;DHT22;32724;51.094;6.996;2022-11-12T01:42:37;4.40;99.90
46976;DHT22;32724;51.094;6.996;2022-11-12T01:45:08;4.40;99.90
46976;DHT22;32724;51.094;6.996;2022-11-12T01:47:40;4.40;99.90
46976;DHT22;32724;51.094;6.996;2022-11-12T01:50:12;4.30;99.90
46976;DHT22;32724;51.094;6.996;2022-11-12T01:52:44;4.40;99.90
46976;DHT22;32724;51.094;6.996;2022-11-12T01:55:12;4.50;99.90
46976;DHT22;32724;51.094;6.996;2022-11-12T01:57:40;4.60;99.90
46976;DHT22;32724;51.094;6.996;2022-11-12T02:00:08;4.60;99.90
46976;DHT22;32724;51.094;6.996;2022-11-12T02:02:38;4.50;99.90
46976;DHT22;32724;51.094;6.996;2022-11-12T02:05:04;4.50;99.90
46976;DHT22;32724;51.094;6.996;2022-11-12T02:07:30;4.50;99.90
46976;DHT22;32724;51.094;6.996;2022-11-12T02:09:57;4.50;99.90
46976;DHT22;32724;51.094;6.996;2022-11-12T02:12:23;4.60;99.90
46976;DHT22;32724;51.094;6.996;2022-11-12T02:15:08;4.50;99.90
46976;DHT22;32724;51.094;6.996;2022-11-12T02:17:33;4.60;99.90
46976;DHT22;32724;51.094;6.996;2022-11-12T02:19:59;4.60;99.90
46976;DHT22;32724;51.094;6.996;2022-11-12T02:22:25;4.40;99.90
46976;DHT22;32724;51.094;6.996;2022-11-12T02:24:50;4.40;99.90
46976;DHT22;32724;51.094;6.996;2022-11-12T02:27:16;4.40;99.90
46976;DHT22;32724;51.094;6.996;2022-11-12T02:29:41;4.40;99.90
46976;DHT22;32724;51.094;6.996;2022-11-12T02:32:11;4.30;99.90
46976;DHT22;32724;51.094;6.996;2022-11-12T02:34:36;4.40;99.90
46976;DHT22;32724;51.094;6.996;2022-11-12T02:37:02;4.60;99.90
46976;DHT22;32724;51.094;6.996;2022-11-12T02:39:27;4.60;99.90
46976;DHT22;32724;51.094;6.996;2022-11-12T02:41:53;4.70;99.90
46976;DHT22;32724;51.094;6.996;2022-11-12T02:44:18;4.90;99.90
46976;DHT22;32724;51.094;6.996;2022-11-12T02:46:43;4.60;99.90
46976;DHT22;32724;51.094;6.996;2022-11-12T02:49:09;4.60;99.90
46976;DHT22;32724;51.094;6.996;2022-11-12T02:51:34;4.60;99.90
46976;DHT22;32724;51.094;6.996;2022-11-12T02:54:00;4.50;99.90
46976;DHT22;32724;51.094;6.996;2022-11-12T02:56:25;4.50;99.90
46976;DHT22;32724;51.094;6.996;2022-11-12T02:58:51;4.40;99.90
46976;DHT22;32724;51.094;6.996;2022-11-12T03:01:16;4.40;99.90
46976;DHT22;32724;51.094;6.996;2022-11-12T03:03:42;4.40;99.90
46976;DHT22;32724;51.094;6.996;2022-11-12T03:06:07;4.40;99.90
46976;DHT22;32724;51.094;6.996;2022-11-12T03:08:33;4.50;99.90
46976;DHT22;32724;51.094;6.996;2022-11-12T03:11:04;4.50;99.90
46976;DHT22;32724;51.094;6.996;2022-11-12T03:13:29;4.50;99.90
46976;DHT22;32724;51.094;6.996;2022-11-12T03:15:59;4.40;99.90
46976;DHT22;32724;51.094;6.996;2022-11-12T03:18:24;4.30;99.90
46976;DHT22;32724;51.094;6.996;2022-11-12T03:20:50;4.10;99.90
46976;DHT22;32724;51.094;6.996;2022-11-12T03:23:16;4.00;99.90
46976;DHT22;32724;51.094;6.996;2022-11-12T03:25:41;4.00;99.90
46976;DHT22;32724;51.094;6.996;2022-11-12T03:28:08;3.90;99.90
46976;DHT22;32724;51.094;6.996;2022-11-12T03:30:35;3.90;99.90
46976;DHT22;32724;51.094;6.996;2022-11-12T03:33:00;4.00;99.90
46976;DHT22;32724;51.094;6.996;2022-11-12T03:35:26;4.10;99.90
46976;DHT22;32724;51.094;6.996;2022-11-12T03:37:52;4.20;99.90
46976;DHT22;32724;51.094;6.996;2022-11-12T03:40:18;4.10;99.90
46976;DHT22;32724;51.094;6.996;2022-11-12T03:42:44;4.20;99.90
46976;DHT22;32724;51.094;6.996;2022-11-12T03:45:09;4.20;99.90
46976;DHT22;32724;51.094;6.996;2022-11-12T03:47:35;4.20;99.90
46976;DHT22;32724;51.094;6.996;2022-11-12T03:50:00;4.10;99.90
46976;DHT22;32724;51.094;6.996;2022-11-12T03:52:26;4.20;99.90
46976;DHT22;32724;51.094;6.996;2022-11-12T03:54:51;4.20;99.90
46976;DHT22;32724;51.094;6.996;2022-11-12T03:57:17;4.10;99.90
46976;DHT22;32724;51.094;6.996;2022-11-12T03:59:42;4.10;99.90
46976;DHT22;32724;51.094;6.996;2022-11-12T04:02:08;4.00;99.90
46976;DHT22;32724;51.094;6.996;2022-11-12T04:04:38;4.00;99.90
46976;DHT22;32724;51.094;6.996;2022-11-12T04:07:22;4.00;99.90
46976;DHT22;32724;51.094;6.996;2022-11-12T04:10:06;4.00;99.90
46976;DHT22;32724;51.094;6.996;2022-11-12T04:12:32;3.90;99.90
46976;DHT22;32724;51.094;6.996;2022-11-12T04:15:16;3.90;99.90
46976;DHT22;32724;51.094;6.996;2022-11-12T04:17:41;3.80;99.90
46976;DHT22;32724;51.094;6.996;2022-11-12T04:20:25;3.80;99.90
46976;DHT22;32724;51.094;6.996;2022-11-12T04:23:10;3.60;99.90
46976;DHT22;32724;51.094;6.996;2022-11-12T04:25:35;3.50;99.90
46976;DHT22;32724;51.094;6.996;2022-11-12T04:28:19;3.50;99.90
46976;DHT22;32724;51.094;6.996;2022-11-12T04:30:44;3.40;99.90
46976;DHT22;32724;51.094;6.996;2022-11-12T04:33:10;3.40;99.90
46976;DHT22;32724;51.094;6.996;2022-11-12T04:35:36;3.30;99.90
46976;DHT22;32724;51.094;6.996;2022-11-12T04:38:01;3.40;99.90
46976;DHT22;32724;51.094;6.996;2022-11-12T04:40:27;3.50;99.90
46976;DHT22;32724;51.094;6.996;2022-11-12T04:43:15;3.40;99.90
46976;DHT22;32724;51.094;6.996;2022-11-12T04:45:59;3.60;99.90
46976;DHT22;32724;51.094;6.996;2022-11-12T04:48:25;3.80;99.90
46976;DHT22;32724;51.094;6.996;2022-11-12T04:50:57;3.80;99.90
46976;DHT22;32724;51.094;6.996;2022-11-12T04:53:24;3.80;99.90
46976;DHT22;32724;51.094;6.996;2022-11-12T04:55:53;3.90;99.90
46976;DHT22;32724;51.094;6.996;2022-11-12T04:58:19;3.90;99.90
46976;DHT22;32724;51.094;6.996;2022-11-12T05:00:45;3.80;99.90
46976;DHT22;32724;51.094;6.996;2022-11-12T05:03:11;3.80;99.90
46976;DHT22;32724;51.094;6.996;2022-11-12T05:05:36;3.80;99.90
46976;DHT22;32724;51.094;6.996;2022-11-12T05:08:02;3.90;99.90
46976;DHT22;32724;51.094;6.996;2022-11-12T05:10:28;3.80;99.90
46976;DHT22;32724;51.094;6.996;2022-11-12T05:12:53;3.90;99.90
46976;DHT22;32724;51.094;6.996;2022-11-12T05:15:19;3.80;99.90
46976;DHT22;32724;51.094;6.996;2022-11-12T05:17:44;3.80;99.90
46976;DHT22;32724;51.094;6.996;2022-11-12T05:20:10;3.70;99.90
46976;DHT22;32724;51.094;6.996;2022-11-12T05:22:36;3.60;99.90
46976;DHT22;32724;51.094;6.996;2022-11-12T05:25:02;3.50;99.90
46976;DHT22;32724;51.094;6.996;2022-11-12T05:27:27;3.40;99.90
46976;DHT22;32724;51.094;6.996;2022-11-12T05:29:53;3.30;99.90
46976;DHT22;32724;51.094;6.996;2022-11-12T05:32:18;3.20;99.90
46976;DHT22;32724;51.094;6.996;2022-11-12T05:34:44;3.20;99.90
46976;DHT22;32724;51.094;6.996;2022-11-12T05:37:10;3.10;99.90
46976;DHT22;32724;51.094;6.996;2022-11-12T05:39:35;3.30;99.90
46976;DHT22;32724;51.094;6.996;2022-11-12T05:42:01;3.20;99.90
46976;DHT22;32724;51.094;6.996;2022-11-12T05:44:27;3.20;99.90
46976;DHT22;32724;51.094;6.996;2022-11-12T05:46:52;3.30;99.90
46976;DHT22;32724;51.094;6.996;2022-11-12T05:49:18;3.40;99.90
46976;DHT22;32724;51.094;6.996;2022-11-12T05:51:43;3.30;99.90
46976;DHT22;32724;51.094;6.996;2022-11-12T05:54:09;3.40;99.90
46976;DHT22;32724;51.094;6.996;2022-11-12T05:56:35;3.40;99.90
46976;DHT22;32724;51.094;6.996;2022-11-12T05:59:01;3.30;99.90
46976;DHT22;32724;51.094;6.996;2022-11-12T06:01:26;3.30;99.90
46976;DHT22;32724;51.094;6.996;2022-11-12T06:03:52;3.30;99.90
46976;DHT22;32724;51.094;6.996;2022-11-12T06:06:17;3.30;99.90
46976;DHT22;32724;51.094;6.996;2022-11-12T06:08:43;3.20;99.90
46976;DHT22;32724;51.094;6.996;2022-11-12T06:11:08;3.20;99.90
46976;DHT22;32724;51.094;6.996;2022-11-12T06:13:34;3.30;99.90
46976;DHT22;32724;51.094;6.996;2022-11-12T06:15:59;3.30;99.90
46976;DHT22;32724;51.094;6.996;2022-11-12T06:18:25;3.30;99.90
46976;DHT22;32724;51.094;6.996;2022-11-12T06:20:50;3.40;99.90
46976;DHT22;32724;51.094;6.996;2022-11-12T06:23:35;3.40;99.90
46976;DHT22;32724;51.094;6.996;2022-11-12T06:26:00;2.90;99.90
46976;DHT22;32724;51.094;6.996;2022-11-12T06:28:26;2.80;99.90
46976;DHT22;32724;51.094;6.996;2022-11-12T06:30:51;2.80;99.90
46976;DHT22;32724;51.094;6.996;2022-11-12T06:33:17;2.60;99.90
46976;DHT22;32724;51.094;6.996;2022-11-12T06:35:42;2.60;99.90
46976;DHT22;32724;51.094;6.996;2022-11-12T06:38:08;2.60;99.90
46976;DHT22;32724;51.094;6.996;2022-11-12T06:40:33;2.70;99.90
46976;DHT22;32724;51.094;6.996;2022-11-12T06:42:59;2.90;99.90
46976;DHT22;32724;51.094;6.996;2022-11-12T06:45:24;3.00;99.90
46976;DHT22;32724;51.094;6.996;2022-11-12T06:47:50;3.10;99.90
46976;DHT22;32724;51.094;6.996;2022-11-12T06:50:16;3.20;99.90
46976;DHT22;32724;51.094;6.996;2022-11-12T06:52:41;3.30;99.90
46976;DHT22;32724;51.094;6.996;2022-11-12T06:55:07;3.30;99.90
46976;DHT22;32724;51.094;6.996;2022-11-12T06:57:35;3.40;99.90
46976;DHT22;32724;51.094;6.996;2022-11-12T07:00:00;3.50;99.90
46976;DHT22;32724;51.094;6.996;2022-11-12T07:02:26;3.30;99.90
46976;DHT22;32724;51.094;6.996;2022-11-12T07:04:51;3.40;99.90
46976;DHT22;32724;51.094;6.996;2022-11-12T07:07:17;3.60;99.90
46976;DHT22;32724;51.094;6.996;2022-11-12T07:09:42;3.90;99.90
46976;DHT22;32724;51.094;6.996;2022-11-12T07:12:08;3.60;99.90
46976;DHT22;32724;51.094;6.996;2022-11-12T07:14:33;3.50;99.90
46976;DHT22;32724;51.094;6.996;2022-11-12T07:16:59;3.60;99.90
46976;DHT22;32724;51.094;6.996;2022-11-12T07:19:26;3.60;99.90
46976;DHT22;32724;51.094;6.996;2022-11-12T07:21:51;3.60;99.90
46976;DHT22;32724;51.094;6.996;2022-11-12T07:24:17;3.60;99.90
46976;DHT22;32724;51.094;6.996;2022-11-12T07:26:42;3.60;99.90
46976;DHT22;32724;51.094;6.996;2022-11-12T07:31:39;3.70;99.90
46976;DHT22;32724;51.094;6.996;2022-11-12T07:34:04;3.80;99.90
46976;DHT22;32724;51.094;6.996;2022-11-12T07:36:30;3.90;99.90
46976;DHT22;32724;51.094;6.996;2022-11-12T07:38:55;4.00;99.90
46976;DHT22;32724;51.094;6.996;2022-11-12T07:41:21;4.10;99.90
46976;DHT22;32724;51.094;6.996;2022-11-12T07:43:48;4.20;99.90
46976;DHT22;32724;51.094;6.996;2022-11-12T07:46:14;4.30;99.90
46976;DHT22;32724;51.094;6.996;2022-11-12T07:48:40;4.30;99.90
46976;DHT22;32724;51.094;6.996;2022-11-12T07:51:07;4.40;99.90
46976;DHT22;32724;51.094;6.996;2022-11-12T07:53:35;4.50;99.90
46976;DHT22;32724;51.094;6.996;2022-11-12T07:56:00;4.60;99.90
46976;DHT22;32724;51.094;6.996;2022-11-12T07:58:27;4.60;99.90
46976;DHT22;32724;51.094;6.996;2022-11-12T08:00:54;4.80;99.90
46976;DHT22;32724;51.094;6.996;2022-11-12T08:03:19;4.90;99.90
46976;DHT22;32724;51.094;6.996;2022-11-12T08:05:45;5.10;99.90
46976;DHT22;32724;51.094;6.996;2022-11-12T08:08:11;5.30;99.90
46976;DHT22;32724;51.094;6.996;2022-11-12T08:10:37;5.50;99.90
46976;DHT22;32724;51.094;6.996;2022-11-12T08:13:02;5.70;99.90
46976;DHT22;32724;51.094;6.996;2022-11-12T08:15:28;5.80;99.90
46976;DHT22;32724;51.094;6.996;2022-11-12T08:17:54;5.90;99.90
46976;DHT22;32724;51.094;6.996;2022-11-12T08:20:19;5.80;99.90
46976;DHT22;32724;51.094;6.996;2022-11-12T08:22:44;5.80;99.90
46976;DHT22;32724;51.094;6.996;2022-11-12T08:25:10;5.90;99.90
46976;DHT22;32724;51.094;6.996;2022-11-12T08:27:35;6.10;99.90
46976;DHT22;32724;51.094;6.996;2022-11-12T08:30:01;6.30;99.90
46976;DHT22;32724;51.094;6.996;2022-11-12T08:32:27;6.40;99.90
46976;DHT22;32724;51.094;6.996;2022-11-12T08:34:53;6.60;99.90
46976;DHT22;32724;51.094;6.996;2022-11-12T08:37:18;6.70;99.90
46976;DHT22;32724;51.094;6.996;2022-11-12T08:39:43;6.80;99.90
46976;DHT22;32724;51.094;6.996;2022-11-12T08:42:09;6.80;99.90
46976;DHT22;32724;51.094;6.996;2022-11-12T08:44:34;7.00;99.90
46976;DHT22;32724;51.094;6.996;2022-11-12T08:47:00;7.20;99.90
46976;DHT22;32724;51.094;6.996;2022-11-12T08:49:25;7.50;99.90
46976;DHT22;32724;51.094;6.996;2022-11-12T08:51:51;7.80;99.90
46976;DHT22;32724;51.094;6.996;2022-11-12T08:54:16;8.00;99.90
46976;DHT22;32724;51.094;6.996;2022-11-12T08:56:42;8.20;99.90
46976;DHT22;32724;51.094;6.996;2022-11-12T08:59:07;8.40;99.90
46976;DHT22;32724;51.094;6.996;2022-11-12T09:01:33;8.60;99.90
46976;DHT22;32724;51.094;6.996;2022-11-12T09:03:58;8.80;99.90
46976;DHT22;32724;51.094;6.996;2022-11-12T09:06:24;9.00;99.90
46976;DHT22;32724;51.094;6.996;2022-11-12T09:08:49;9.30;99.90
46976;DHT22;32724;51.094;6.996;2022-11-12T09:11:14;9.50;99.90
46976;DHT22;32724;51.094;6.996;2022-11-12T09:13:40;9.70;99.90
46976;DHT22;32724;51.094;6.996;2022-11-12T09:16:06;9.40;99.90
46976;DHT22;32724;51.094;6.996;2022-11-12T09:18:31;9.10;99.90
46976;DHT22;32724;51.094;6.996;2022-11-12T09:20:58;9.00;99.90
46976;DHT22;32724;51.094;6.996;2022-11-12T09:23:23;9.00;99.90
46976;DHT22;32724;51.094;6.996;2022-11-12T09:25:49;9.10;99.90
46976;DHT22;32724;51.094;6.996;2022-11-12T09:28:15;9.20;99.90
46976;DHT22;32724;51.094;6.996;2022-11-12T09:30:42;9.30;99.90
46976;DHT22;32724;51.094;6.996;2022-11-12T09:33:11;9.50;99.90
46976;DHT22;32724;51.094;6.996;2022-11-12T09:35:37;9.60;99.90
46976;DHT22;32724;51.094;6.996;2022-11-12T09:38:02;9.90;99.90
46976;DHT22;32724;51.094;6.996;2022-11-12T09:40:37;10.20;99.90
46976;DHT22;32724;51.094;6.996;2022-11-12T09:43:08;10.40;99.90
46976;DHT22;32724;51.094;6.996;2022-11-12T09:45:34;10.60;99.90
46976;DHT22;32724;51.094;6.996;2022-11-12T09:48:01;10.80;99.90
46976;DHT22;32724;51.094;6.996;2022-11-12T09:50:32;10.90;99.90
46976;DHT22;32724;51.094;6.996;2022-11-12T09:53:11;11.00;99.90
46976;DHT22;32724;51.094;6.996;2022-11-12T09:55:39;11.10;99.90
46976;DHT22;32724;51.094;6.996;2022-11-12T09:58:10;11.20;99.90
46976;DHT22;32724;51.094;6.996;2022-11-12T10:00:35;11.30;99.90
46976;DHT22;32724;51.094;6.996;2022-11-12T10:03:06;11.40;99.90
46976;DHT22;32724;51.094;6.996;2022-11-12T10:05:39;11.40;99.90
46976;DHT22;32724;51.094;6.996;2022-11-12T10:10:34;11.70;99.90
46976;DHT22;32724;51.094;6.996;2022-11-12T10:21:23;11.60;99.90
46976;DHT22;32724;51.094;6.996;2022-11-12T10:23:53;11.80;99.90
46976;DHT22;32724;51.094;6.996;2022-11-12T10:26:20;12.00;99.90
46976;DHT22;32724;51.094;6.996;2022-11-12T10:28:50;12.10;99.90
46976;DHT22;32724;51.094;6.996;2022-11-12T10:31:18;12.30;99.90
46976;DHT22;32724;51.094;6.996;2022-11-12T10:33:44;12.60;99.90
46976;DHT22;32724;51.094;6.996;2022-11-12T10:38:35;12.90;99.90
46976;DHT22;32724;51.094;6.996;2022-11-12T10:41:05;13.00;99.90
46976;DHT22;32724;51.094;6.996;2022-11-12T10:43:47;13.10;99.90
46976;DHT22;32724;51.094;6.996;2022-11-12T10:46:18;13.10;99.90
46976;DHT22;32724;51.094;6.996;2022-11-12T10:48:51;13.10;99.90
46976;DHT22;32724;51.094;6.996;2022-11-12T10:51:28;13.20;99.90
46976;DHT22;32724;51.094;6.996;2022-11-12T10:53:54;13.30;99.90
46976;DHT22;32724;51.094;6.996;2022-11-12T10:56:29;13.30;99.90
46976;DHT22;32724;51.094;6.996;2022-11-12T10:59:08;13.40;99.90
46976;DHT22;32724;51.094;6.996;2022-11-12T11:01:34;13.50;99.90
46976;DHT22;32724;51.094;6.996;2022-11-12T11:03:59;13.50;99.90
46976;DHT22;32724;51.094;6.996;2022-11-12T11:06:25;13.50;99.90
46976;DHT22;32724;51.094;6.996;2022-11-12T11:08:52;13.50;99.90
46976;DHT22;32724;51.094;6.996;2022-11-12T11:11:22;13.40;99.90
46976;DHT22;32724;51.094;6.996;2022-11-12T11:13:49;13.40;99.90
46976;DHT22;32724;51.094;6.996;2022-11-12T11:16:16;13.50;99.90
46976;DHT22;32724;51.094;6.996;2022-11-12T11:18:44;13.30;99.90
46976;DHT22;32724;51.094;6.996;2022-11-12T11:27:03;13.20;99.90
46976;DHT22;32724;51.094;6.996;2022-11-12T11:32:14;13.60;99.90
46976;DHT22;32724;51.094;6.996;2022-11-12T11:39:47;13.90;99.90
46976;DHT22;32724;51.094;6.996;2022-11-12T11:44:53;14.10;99.90
46976;DHT22;32724;51.094;6.996;2022-11-12T11:50:08;14.10;99.90
46976;DHT22;32724;51.094;6.996;2022-11-12T12:00:12;14.20;99.90
46976;DHT22;32724;51.094;6.996;2022-11-12T12:07:54;14.30;99.90
46976;DHT22;32724;51.094;6.996;2022-11-12T12:10:36;14.30;99.90
46976;DHT22;32724;51.094;6.996;2022-11-12T12:13:07;14.40;99.90
46976;DHT22;32724;51.094;6.996;2022-11-12T12:18:19;14.50;99.90
46976;DHT22;32724;51.094;6.996;2022-11-12T12:23:18;14.40;99.90
46976;DHT22;32724;51.094;6.996;2022-11-12T12:25:47;14.40;99.90
46976;DHT22;32724;51.094;6.996;2022-11-12T12:28:16;14.40;99.90
46976;DHT22;32724;51.094;6.996;2022-11-12T12:30:44;14.50;99.90
46976;DHT22;32724;51.094;6.996;2022-11-12T12:33:18;14.50;99.90
46976;DHT22;32724;51.094;6.996;2022-11-12T12:35:58;14.60;99.90
46976;DHT22;32724;51.094;6.996;2022-11-12T12:38:31;14.60;99.90
46976;DHT22;32724;51.094;6.996;2022-11-12T12:41:08;14.60;99.90
46976;DHT22;32724;51.094;6.996;2022-11-12T12:43:36;14.60;99.90
46976;DHT22;32724;51.094;6.996;2022-11-12T12:46:02;14.60;99.90
46976;DHT22;32724;51.094;6.996;2022-11-12T12:48:30;14.70;99.90
46976;DHT22;32724;51.094;6.996;2022-11-12T12:50:56;14.70;99.90
46976;DHT22;32724;51.094;6.996;2022-11-12T12:56:03;14.70;99.90
46976;DHT22;32724;51.094;6.996;2022-11-12T13:01:50;14.80;99.90
46976;DHT22;32724;51.094;6.996;2022-11-12T13:04:03;14.80;99.90
46976;DHT22;32724;51.094;6.996;2022-11-12T13:06:38;14.90;99.90
46976;DHT22;32724;51.094;6.996;2022-11-12T13:37:42;15.10;99.90
46976;DHT22;32724;51.094;6.996;2022-11-12T13:42:58;15.10;99.90
46976;DHT22;32724;51.094;6.996;2022-11-12T13:45:27;15.20;99.90
46976;DHT22;32724;51.094;6.996;2022-11-12T13:47:53;15.20;99.90
46976;DHT22;32724;51.094;6.996;2022-11-12T13:50:20;15.30;99.90
46976;DHT22;32724;51.094;6.996;2022-11-12T13:52:46;15.30;99.90
46976;DHT22;32724;51.094;6.996;2022-11-12T13:55:13;15.30;99.90
46976;DHT22;32724;51.094;6.996;2022-11-12T13:57:39;15.30;99.90
46976;DHT22;32724;51.094;6.996;2022-11-12T14:00:09;15.30;99.90
46976;DHT22;32724;51.094;6.996;2022-11-12T14:03:05;15.30;99.90
46976;DHT22;32724;51.094;6.996;2022-11-12T14:05:32;15.30;99.90
46976;DHT22;32724;51.094;6.996;2022-11-12T14:10:43;15.30;99.90
46976;DHT22;32724;51.094;6.996;2022-11-12T14:21:10;15.40;99.90
46976;DHT22;32724;51.094;6.996;2022-11-12T14:23:37;15.40;99.90
46976;DHT22;32724;51.094;6.996;2022-11-12T14:26:03;15.40;99.90
46976;DHT22;32724;51.094;6.996;2022-11-12T14:30:54;15.30;99.90
46976;DHT22;32724;51.094;6.996;2022-11-12T14:33:21;15.30;99.90
46976;DHT22;32724;51.094;6.996;2022-11-12T14:35:47;15.20;99.90
46976;DHT22;32724;51.094;6.996;2022-11-12T14:38:25;15.20;99.90
46976;DHT22;32724;51.094;6.996;2022-11-12T14:40:53;15.10;99.90
46976;DHT22;32724;51.094;6.996;2022-11-12T14:43:27;15.10;99.90
46976;DHT22;32724;51.094;6.996;2022-11-12T14:45:54;15.00;99.90
46976;DHT22;32724;51.094;6.996;2022-11-12T14:48:20;14.90;99.90
46976;DHT22;32724;51.094;6.996;2022-11-12T14:50:46;14.90;99.90
46976;DHT22;32724;51.094;6.996;2022-11-12T14:55:46;14.90;99.90
46976;DHT22;32724;51.094;6.996;2022-11-12T14:58:13;14.80;99.90
46976;DHT22;32724;51.094;6.996;2022-11-12T15:00:40;14.80;99.90
46976;DHT22;32724;51.094;6.996;2022-11-12T15:03:05;14.70;99.90
46976;DHT22;32724;51.094;6.996;2022-11-12T15:05:31;14.60;99.90
46976;DHT22;32724;51.094;6.996;2022-11-12T15:08:04;14.00;99.90
46976;DHT22;32724;51.094;6.996;2022-11-12T15:10:50;13.60;99.90
46976;DHT22;32724;51.094;6.996;2022-11-12T15:13:17;13.40;99.90
46976;DHT22;32724;51.094;6.996;2022-11-12T15:16:16;13.40;99.90
46976;DHT22;32724;51.094;6.996;2022-11-12T15:18:35;13.20;99.90
46976;DHT22;32724;51.094;6.996;2022-11-12T15:21:15;12.90;99.90
46976;DHT22;32724;51.094;6.996;2022-11-12T15:23:50;12.70;99.90
46976;DHT22;32724;51.094;6.996;2022-11-12T15:26:30;12.50;99.90
46976;DHT22;32724;51.094;6.996;2022-11-12T15:28:57;12.40;99.90
46976;DHT22;32724;51.094;6.996;2022-11-12T15:31:23;12.50;99.90
46976;DHT22;32724;51.094;6.996;2022-11-12T15:33:48;12.50;99.90
46976;DHT22;32724;51.094;6.996;2022-11-12T15:36:18;12.50;99.90
46976;DHT22;32724;51.094;6.996;2022-11-12T15:38:47;12.40;99.90
46976;DHT22;32724;51.094;6.996;2022-11-12T15:41:20;12.40;99.90
46976;DHT22;32724;51.094;6.996;2022-11-12T15:43:46;12.30;99.90
46976;DHT22;32724;51.094;6.996;2022-11-12T15:46:12;12.30;99.90
46976;DHT22;32724;51.094;6.996;2022-11-12T15:48:39;12.20;99.90
46976;DHT22;32724;51.094;6.996;2022-11-12T15:51:07;12.20;99.90
46976;DHT22;32724;51.094;6.996;2022-11-12T15:53:33;12.10;99.90
46976;DHT22;32724;51.094;6.996;2022-11-12T15:55:58;12.00;99.90
46976;DHT22;32724;51.094;6.996;2022-11-12T15:58:33;11.90;99.90
46976;DHT22;32724;51.094;6.996;2022-11-12T16:00:59;11.80;99.90
46976;DHT22;32724;51.094;6.996;2022-11-12T16:03:25;11.70;99.90
46976;DHT22;32724;51.094;6.996;2022-11-12T16:05:51;11.70;99.90
46976;DHT22;32724;51.094;6.996;2022-11-12T16:08:16;11.60;99.90
46976;DHT22;32724;51.094;6.996;2022-11-12T16:10:42;11.50;99.90
46976;DHT22;32724;51.094;6.996;2022-11-12T16:13:24;11.40;99.90
46976;DHT22;32724;51.094;6.996;2022-11-12T16:15:50;11.30;99.90
46976;DHT22;32724;51.094;6.996;2022-11-12T16:18:15;11.20;99.90
46976;DHT22;32724;51.094;6.996;2022-11-12T16:20:41;11.10;99.90
46976;DHT22;32724;51.094;6.996;2022-11-12T16:23:06;11.00;99.90
46976;DHT22;32724;51.094;6.996;2022-11-12T16:25:32;10.90;99.90
46976;DHT22;32724;51.094;6.996;2022-11-12T16:27:59;10.80;99.90
46976;DHT22;32724;51.094;6.996;2022-11-12T16:30:29;10.70;99.90
46976;DHT22;32724;51.094;6.996;2022-11-12T16:32:55;10.70;99.90
46976;DHT22;32724;51.094;6.996;2022-11-12T16:35:21;10.70;99.90
46976;DHT22;32724;51.094;6.996;2022-11-12T16:37:46;10.70;99.90
46976;DHT22;32724;51.094;6.996;2022-11-12T16:40:16;10.60;99.90
46976;DHT22;32724;51.094;6.996;2022-11-12T16:42:42;10.50;99.90
46976;DHT22;32724;51.094;6.996;2022-11-12T16:45:10;10.40;99.90
46976;DHT22;32724;51.094;6.996;2022-11-12T16:47:38;10.30;99.90
46976;DHT22;32724;51.094;6.996;2022-11-12T16:50:08;10.20;99.90
46976;DHT22;32724;51.094;6.996;2022-11-12T16:52:34;10.20;99.90
46976;DHT22;32724;51.094;6.996;2022-11-12T16:54:59;10.20;99.90
46976;DHT22;32724;51.094;6.996;2022-11-12T16:57:25;10.10;99.90
46976;DHT22;32724;51.094;6.996;2022-11-12T16:59:50;10.20;99.90
46976;DHT22;32724;51.094;6.996;2022-11-12T17:02:16;10.10;99.90
46976;DHT22;32724;51.094;6.996;2022-11-12T17:04:42;10.20;99.90
46976;DHT22;32724;51.094;6.996;2022-11-12T17:07:07;10.20;99.90
46976;DHT22;32724;51.094;6.996;2022-11-12T17:09:32;10.10;99.90
46976;DHT22;32724;51.094;6.996;2022-11-12T17:11:58;10.20;99.90
46976;DHT22;32724;51.094;6.996;2022-11-12T17:14:23;10.20;99.90
46976;DHT22;32724;51.094;6.996;2022-11-12T17:16:49;10.20;99.90
46976;DHT22;32724;51.094;6.996;2022-11-12T17:19:14;10.30;99.90
46976;DHT22;32724;51.094;6.996;2022-11-12T17:21:42;10.50;99.90
46976;DHT22;32724;51.094;6.996;2022-11-12T17:24:08;10.40;99.90
46976;DHT22;32724;51.094;6.996;2022-11-12T17:26:33;10.60;99.90